Delta Garden, Louisiana
Current Conditions -  °F | °C
As of 8:35 PM on Wednesday 22 Oct 2014 (Local Time) from KHEZ Reporting Station
Clear Clear  
Wind Chill: 57°   Ceiling: Unl
Heat Index: 57°   Visibility: 10mi
Dew Point: 52°   Wind: 3mph
Humidity: 82%   Direction: 360°N
Pressure: 30.11"   Gusts: NA
Location:  31.6488°N, 91.6098°W
Report Text: KHEZ 230135Z AUTO 36003KT 10SM CLR 14/11 A3011 RMK AO1
Loading
Personal Weather Stations






























Interactive Weather Map
Tropical Storm Tracking
New forecast layout! Learn more

10-Day Weather Forecast

Advertisements
Track Severe Weather on mobile